sensor_id;sensor_type;location;lat;lon;timestamp;P1;durP1;ratioP1;P2;durP2;ratioP2
74593;SDS011;63097;51.872;4.460;2023-04-24T00:00:19;4.43;;;0.75;;
74593;SDS011;63097;51.872;4.460;2023-04-24T00:02:45;4.47;;;1.20;;
74593;SDS011;63097;51.872;4.460;2023-04-24T00:05:10;3.78;;;1.10;;
74593;SDS011;63097;51.872;4.460;2023-04-24T00:07:35;1.63;;;1.08;;
74593;SDS011;63097;51.872;4.460;2023-04-24T00:10:01;5.57;;;1.05;;
74593;SDS011;63097;51.872;4.460;2023-04-24T00:12:26;4.32;;;0.95;;
74593;SDS011;63097;51.872;4.460;2023-04-24T00:14:52;3.95;;;1.23;;
74593;SDS011;63097;51.872;4.460;2023-04-24T00:17:17;6.93;;;1.27;;
74593;SDS011;63097;51.872;4.460;2023-04-24T00:19:43;3.35;;;0.98;;
74593;SDS011;63097;51.872;4.460;2023-04-24T00:22:08;1.70;;;1.20;;
74593;SDS011;63097;51.872;4.460;2023-04-24T00:24:33;4.70;;;1.27;;
74593;SDS011;63097;51.872;4.460;2023-04-24T00:26:59;4.00;;;1.20;;
74593;SDS011;63097;51.872;4.460;2023-04-24T00:29:24;3.25;;;1.50;;
74593;SDS011;63097;51.872;4.460;2023-04-24T00:31:49;6.72;;;1.98;;
74593;SDS011;63097;51.872;4.460;2023-04-24T00:34:14;4.20;;;1.80;;
74593;SDS011;63097;51.872;4.460;2023-04-24T00:36:40;3.90;;;1.65;;
74593;SDS011;63097;51.872;4.460;2023-04-24T00:39:05;6.38;;;1.98;;
74593;SDS011;63097;51.872;4.460;2023-04-24T00:41:31;5.20;;;1.77;;
74593;SDS011;63097;51.872;4.460;2023-04-24T00:43:56;5.53;;;2.50;;
74593;SDS011;63097;51.872;4.460;2023-04-24T00:46:22;5.78;;;2.13;;
74593;SDS011;63097;51.872;4.460;2023-04-24T00:48:47;2.90;;;1.67;;
74593;SDS011;63097;51.872;4.460;2023-04-24T00:51:12;2.10;;;1.90;;
74593;SDS011;63097;51.872;4.460;2023-04-24T00:53:38;2.13;;;1.65;;
74593;SDS011;63097;51.872;4.460;2023-04-24T00:56:03;2.00;;;1.33;;
74593;SDS011;63097;51.872;4.460;2023-04-24T00:58:29;1.77;;;1.20;;
74593;SDS011;63097;51.872;4.460;2023-04-24T01:00:55;3.08;;;1.80;;
74593;SDS011;63097;51.872;4.460;2023-04-24T01:03:21;5.28;;;2.47;;
74593;SDS011;63097;51.872;4.460;2023-04-24T01:05:49;4.45;;;2.45;;
74593;SDS011;63097;51.872;4.460;2023-04-24T01:08:15;5.22;;;3.13;;
74593;SDS011;63097;51.872;4.460;2023-04-24T01:10:41;4.70;;;2.60;;
74593;SDS011;63097;51.872;4.460;2023-04-24T01:13:07;6.82;;;3.13;;
74593;SDS011;63097;51.872;4.460;2023-04-24T01:15:33;13.23;;;4.63;;
74593;SDS011;63097;51.872;4.460;2023-04-24T01:17:59;8.45;;;3.72;;
74593;SDS011;63097;51.872;4.460;2023-04-24T01:20:24;6.20;;;3.03;;
74593;SDS011;63097;51.872;4.460;2023-04-24T01:22:50;11.02;;;3.45;;
74593;SDS011;63097;51.872;4.460;2023-04-24T01:25:15;8.15;;;2.90;;
74593;SDS011;63097;51.872;4.460;2023-04-24T01:27:41;7.60;;;3.83;;
74593;SDS011;63097;51.872;4.460;2023-04-24T01:30:06;7.75;;;3.83;;
74593;SDS011;63097;51.872;4.460;2023-04-24T01:32:32;12.00;;;3.92;;
74593;SDS011;63097;51.872;4.460;2023-04-24T01:34:58;14.57;;;3.38;;
74593;SDS011;63097;51.872;4.460;2023-04-24T01:37:24;3.95;;;2.65;;
74593;SDS011;63097;51.872;4.460;2023-04-24T01:39:49;7.38;;;3.05;;
74593;SDS011;63097;51.872;4.460;2023-04-24T01:42:15;9.85;;;3.78;;
74593;SDS011;63097;51.872;4.460;2023-04-24T01:44:41;5.80;;;3.72;;
74593;SDS011;63097;51.872;4.460;2023-04-24T01:47:06;8.38;;;3.60;;
74593;SDS011;63097;51.872;4.460;2023-04-24T01:49:32;6.72;;;3.97;;
74593;SDS011;63097;51.872;4.460;2023-04-24T01:51:57;10.60;;;4.47;;
74593;SDS011;63097;51.872;4.460;2023-04-24T01:54:23;9.82;;;5.15;;
74593;SDS011;63097;51.872;4.460;2023-04-24T01:56:48;10.18;;;4.88;;
74593;SDS011;63097;51.872;4.460;2023-04-24T01:59:13;10.25;;;4.90;;
74593;SDS011;63097;51.872;4.460;2023-04-24T02:01:41;18.83;;;5.80;;
74593;SDS011;63097;51.872;4.460;2023-04-24T02:04:07;9.95;;;5.53;;
74593;SDS011;63097;51.872;4.460;2023-04-24T02:06:32;8.27;;;4.18;;
74593;SDS011;63097;51.872;4.460;2023-04-24T02:08:58;8.30;;;3.72;;
74593;SDS011;63097;51.872;4.460;2023-04-24T02:11:24;8.93;;;3.80;;
74593;SDS011;63097;51.872;4.460;2023-04-24T02:13:49;12.90;;;4.82;;
74593;SDS011;63097;51.872;4.460;2023-04-24T02:16:14;5.63;;;2.35;;
74593;SDS011;63097;51.872;4.460;2023-04-24T02:18:40;15.95;;;2.85;;
74593;SDS011;63097;51.872;4.460;2023-04-24T02:21:05;4.20;;;2.20;;
74593;SDS011;63097;51.872;4.460;2023-04-24T02:23:30;3.35;;;1.90;;
74593;SDS011;63097;51.872;4.460;2023-04-24T02:25:56;6.07;;;2.13;;
74593;SDS011;63097;51.872;4.460;2023-04-24T02:28:21;2.30;;;1.95;;
74593;SDS011;63097;51.872;4.460;2023-04-24T02:30:46;6.10;;;2.33;;
74593;SDS011;63097;51.872;4.460;2023-04-24T02:33:12;9.20;;;2.60;;
74593;SDS011;63097;51.872;4.460;2023-04-24T02:35:37;3.00;;;1.70;;
74593;SDS011;63097;51.872;4.460;2023-04-24T02:38:02;4.22;;;1.50;;
74593;SDS011;63097;51.872;4.460;2023-04-24T02:40:28;4.03;;;1.73;;
74593;SDS011;63097;51.872;4.460;2023-04-24T02:42:54;2.72;;;1.45;;
74593;SDS011;63097;51.872;4.460;2023-04-24T02:45:20;3.30;;;1.20;;
74593;SDS011;63097;51.872;4.460;2023-04-24T02:47:45;3.72;;;1.58;;
74593;SDS011;63097;51.872;4.460;2023-04-24T02:50:10;2.08;;;1.17;;
74593;SDS011;63097;51.872;4.460;2023-04-24T02:52:36;1.42;;;1.05;;
74593;SDS011;63097;51.872;4.460;2023-04-24T02:55:01;1.00;;;0.90;;
74593;SDS011;63097;51.872;4.460;2023-04-24T02:57:26;2.25;;;1.17;;
74593;SDS011;63097;51.872;4.460;2023-04-24T02:59:52;0.85;;;0.80;;
74593;SDS011;63097;51.872;4.460;2023-04-24T03:02:17;2.15;;;0.80;;
74593;SDS011;63097;51.872;4.460;2023-04-24T03:04:42;2.72;;;1.08;;
74593;SDS011;63097;51.872;4.460;2023-04-24T03:07:08;1.48;;;0.60;;
74593;SDS011;63097;51.872;4.460;2023-04-24T03:09:33;5.75;;;0.70;;
74593;SDS011;63097;51.872;4.460;2023-04-24T03:11:58;0.65;;;0.57;;
74593;SDS011;63097;51.872;4.460;2023-04-24T03:14:24;3.17;;;0.68;;
74593;SDS011;63097;51.872;4.460;2023-04-24T03:16:49;0.95;;;0.77;;
74593;SDS011;63097;51.872;4.460;2023-04-24T03:19:14;4.05;;;0.90;;
74593;SDS011;63097;51.872;4.460;2023-04-24T03:21:40;4.63;;;1.73;;
74593;SDS011;63097;51.872;4.460;2023-04-24T03:24:05;2.13;;;1.10;;
74593;SDS011;63097;51.872;4.460;2023-04-24T03:26:31;1.73;;;1.10;;
74593;SDS011;63097;51.872;4.460;2023-04-24T03:28:57;1.52;;;0.70;;
74593;SDS011;63097;51.872;4.460;2023-04-24T03:31:22;3.72;;;0.40;;
74593;SDS011;63097;51.872;4.460;2023-04-24T03:33:47;1.88;;;0.40;;
74593;SDS011;63097;51.872;4.460;2023-04-24T03:36:13;2.75;;;0.47;;
74593;SDS011;63097;51.872;4.460;2023-04-24T03:38:38;5.97;;;0.55;;
74593;SDS011;63097;51.872;4.460;2023-04-24T03:41:03;0.70;;;0.52;;
74593;SDS011;63097;51.872;4.460;2023-04-24T03:43:29;2.90;;;0.68;;
74593;SDS011;63097;51.872;4.460;2023-04-24T03:45:54;1.10;;;0.73;;
74593;SDS011;63097;51.872;4.460;2023-04-24T03:48:19;3.90;;;0.98;;
74593;SDS011;63097;51.872;4.460;2023-04-24T03:50:44;4.45;;;1.48;;
74593;SDS011;63097;51.872;4.460;2023-04-24T03:53:10;7.78;;;1.10;;
74593;SDS011;63097;51.872;4.460;2023-04-24T03:55:35;7.55;;;1.30;;
74593;SDS011;63097;51.872;4.460;2023-04-24T03:58:00;12.70;;;1.27;;
74593;SDS011;63097;51.872;4.460;2023-04-24T04:00:26;4.50;;;0.98;;
74593;SDS011;63097;51.872;4.460;2023-04-24T04:02:51;6.22;;;0.90;;
74593;SDS011;63097;51.872;4.460;2023-04-24T04:05:16;6.03;;;1.02;;
74593;SDS011;63097;51.872;4.460;2023-04-24T04:07:42;9.43;;;1.10;;
74593;SDS011;63097;51.872;4.460;2023-04-24T04:10:07;2.90;;;0.98;;
74593;SDS011;63097;51.872;4.460;2023-04-24T04:12:33;6.78;;;1.08;;
74593;SDS011;63097;51.872;4.460;2023-04-24T04:14:58;2.55;;;0.98;;
74593;SDS011;63097;51.872;4.460;2023-04-24T04:17:23;2.28;;;0.90;;
74593;SDS011;63097;51.872;4.460;2023-04-24T04:19:48;3.15;;;0.98;;
74593;SDS011;63097;51.872;4.460;2023-04-24T04:22:14;3.17;;;1.30;;
74593;SDS011;63097;51.872;4.460;2023-04-24T04:24:39;5.72;;;1.55;;
74593;SDS011;63097;51.872;4.460;2023-04-24T04:27:04;5.50;;;1.20;;
74593;SDS011;63097;51.872;4.460;2023-04-24T04:29:30;8.73;;;2.00;;
74593;SDS011;63097;51.872;4.460;2023-04-24T04:31:56;3.72;;;1.88;;
74593;SDS011;63097;51.872;4.460;2023-04-24T04:34:21;7.00;;;1.20;;
74593;SDS011;63097;51.872;4.460;2023-04-24T04:36:46;5.00;;;1.40;;
74593;SDS011;63097;51.872;4.460;2023-04-24T04:39:11;6.22;;;1.83;;
74593;SDS011;63097;51.872;4.460;2023-04-24T04:41:37;4.75;;;1.40;;
74593;SDS011;63097;51.872;4.460;2023-04-24T04:44:02;10.45;;;2.50;;
74593;SDS011;63097;51.872;4.460;2023-04-24T04:46:27;8.35;;;2.92;;
74593;SDS011;63097;51.872;4.460;2023-04-24T04:48:53;12.13;;;2.05;;
74593;SDS011;63097;51.872;4.460;2023-04-24T04:51:18;4.70;;;2.17;;
74593;SDS011;63097;51.872;4.460;2023-04-24T04:53:43;5.72;;;2.63;;
74593;SDS011;63097;51.872;4.460;2023-04-24T04:56:09;5.97;;;2.45;;
74593;SDS011;63097;51.872;4.460;2023-04-24T04:58:34;6.75;;;2.55;;
74593;SDS011;63097;51.872;4.460;2023-04-24T05:00:59;10.80;;;4.60;;
74593;SDS011;63097;51.872;4.460;2023-04-24T05:03:25;15.07;;;5.20;;
74593;SDS011;63097;51.872;4.460;2023-04-24T05:05:50;16.48;;;3.72;;
74593;SDS011;63097;51.872;4.460;2023-04-24T05:08:15;10.18;;;4.50;;
74593;SDS011;63097;51.872;4.460;2023-04-24T05:10:41;12.98;;;5.50;;
74593;SDS011;63097;51.872;4.460;2023-04-24T05:13:06;15.02;;;5.95;;
74593;SDS011;63097;51.872;4.460;2023-04-24T05:15:31;28.02;;;7.25;;
74593;SDS011;63097;51.872;4.460;2023-04-24T05:17:57;16.75;;;6.35;;
74593;SDS011;63097;51.872;4.460;2023-04-24T05:20:22;13.15;;;4.40;;
74593;SDS011;63097;51.872;4.460;2023-04-24T05:22:47;11.45;;;5.03;;
74593;SDS011;63097;51.872;4.460;2023-04-24T05:25:13;16.08;;;5.55;;
74593;SDS011;63097;51.872;4.460;2023-04-24T05:27:38;11.50;;;4.88;;
74593;SDS011;63097;51.872;4.460;2023-04-24T05:30:03;11.82;;;5.25;;
74593;SDS011;63097;51.872;4.460;2023-04-24T05:32:29;12.10;;;5.72;;
74593;SDS011;63097;51.872;4.460;2023-04-24T05:34:55;9.90;;;5.38;;
74593;SDS011;63097;51.872;4.460;2023-04-24T05:37:20;13.82;;;5.78;;
74593;SDS011;63097;51.872;4.460;2023-04-24T05:39:45;15.18;;;6.38;;
74593;SDS011;63097;51.872;4.460;2023-04-24T05:42:11;24.67;;;8.32;;
74593;SDS011;63097;51.872;4.460;2023-04-24T05:44:36;24.00;;;6.60;;
74593;SDS011;63097;51.872;4.460;2023-04-24T05:47:02;31.00;;;7.82;;
74593;SDS011;63097;51.872;4.460;2023-04-24T05:49:28;29.48;;;8.05;;
74593;SDS011;63097;51.872;4.460;2023-04-24T05:51:53;15.05;;;4.85;;
74593;SDS011;63097;51.872;4.460;2023-04-24T05:54:18;18.80;;;8.00;;
74593;SDS011;63097;51.872;4.460;2023-04-24T05:56:44;13.35;;;5.18;;
74593;SDS011;63097;51.872;4.460;2023-04-24T05:59:09;16.73;;;6.82;;
74593;SDS011;63097;51.872;4.460;2023-04-24T06:01:34;20.65;;;7.13;;
74593;SDS011;63097;51.872;4.460;2023-04-24T06:04:00;21.50;;;7.45;;
74593;SDS011;63097;51.872;4.460;2023-04-24T06:06:25;20.33;;;5.70;;
74593;SDS011;63097;51.872;4.460;2023-04-24T06:08:50;24.77;;;5.72;;
74593;SDS011;63097;51.872;4.460;2023-04-24T06:11:16;30.63;;;4.47;;
74593;SDS011;63097;51.872;4.460;2023-04-24T06:13:41;26.38;;;3.78;;
74593;SDS011;63097;51.872;4.460;2023-04-24T06:16:06;29.60;;;5.05;;
74593;SDS011;63097;51.872;4.460;2023-04-24T06:18:32;25.30;;;3.88;;
74593;SDS011;63097;51.872;4.460;2023-04-24T06:20:57;21.25;;;5.30;;
74593;SDS011;63097;51.872;4.460;2023-04-24T06:23:22;19.98;;;3.83;;
74593;SDS011;63097;51.872;4.460;2023-04-24T06:25:48;17.67;;;3.35;;
74593;SDS011;63097;51.872;4.460;2023-04-24T06:28:13;21.60;;;3.55;;
74593;SDS011;63097;51.872;4.460;2023-04-24T06:30:39;25.25;;;4.50;;
74593;SDS011;63097;51.872;4.460;2023-04-24T06:33:04;28.20;;;4.50;;
74593;SDS011;63097;51.872;4.460;2023-04-24T06:35:29;26.80;;;4.32;;
74593;SDS011;63097;51.872;4.460;2023-04-24T06:37:54;21.27;;;3.90;;
74593;SDS011;63097;51.872;4.460;2023-04-24T06:40:20;27.45;;;4.13;;
74593;SDS011;63097;51.872;4.460;2023-04-24T06:42:45;20.50;;;3.50;;
74593;SDS011;63097;51.872;4.460;2023-04-24T06:45:10;28.77;;;4.53;;
74593;SDS011;63097;51.872;4.460;2023-04-24T06:47:36;25.52;;;3.53;;
74593;SDS011;63097;51.872;4.460;2023-04-24T06:50:01;25.83;;;4.22;;
74593;SDS011;63097;51.872;4.460;2023-04-24T06:52:26;14.57;;;3.25;;
74593;SDS011;63097;51.872;4.460;2023-04-24T06:54:52;23.33;;;4.15;;
74593;SDS011;63097;51.872;4.460;2023-04-24T06:57:17;15.05;;;2.15;;
74593;SDS011;63097;51.872;4.460;2023-04-24T06:59:43;19.67;;;3.30;;
74593;SDS011;63097;51.872;4.460;2023-04-24T07:02:08;25.83;;;3.20;;
74593;SDS011;63097;51.872;4.460;2023-04-24T07:04:33;25.50;;;2.83;;
74593;SDS011;63097;51.872;4.460;2023-04-24T07:06:59;22.10;;;3.53;;
74593;SDS011;63097;51.872;4.460;2023-04-24T07:09:25;13.65;;;2.22;;
74593;SDS011;63097;51.872;4.460;2023-04-24T07:11:51;20.60;;;3.05;;
74593;SDS011;63097;51.872;4.460;2023-04-24T07:14:17;14.77;;;2.17;;
74593;SDS011;63097;51.872;4.460;2023-04-24T07:16:42;19.75;;;3.38;;
74593;SDS011;63097;51.872;4.460;2023-04-24T07:19:08;26.10;;;2.30;;
74593;SDS011;63097;51.872;4.460;2023-04-24T07:21:34;26.23;;;3.85;;
74593;SDS011;63097;51.872;4.460;2023-04-24T07:23:59;17.08;;;1.90;;
74593;SDS011;63097;51.872;4.460;2023-04-24T07:26:25;16.92;;;2.58;;
74593;SDS011;63097;51.872;4.460;2023-04-24T07:28:51;17.40;;;2.22;;
74593;SDS011;63097;51.872;4.460;2023-04-24T07:31:16;18.92;;;2.53;;
74593;SDS011;63097;51.872;4.460;2023-04-24T07:33:41;12.43;;;2.22;;
74593;SDS011;63097;51.872;4.460;2023-04-24T07:36:07;22.02;;;2.70;;
74593;SDS011;63097;51.872;4.460;2023-04-24T07:38:32;12.18;;;2.35;;
74593;SDS011;63097;51.872;4.460;2023-04-24T07:40:57;18.52;;;2.38;;
74593;SDS011;63097;51.872;4.460;2023-04-24T07:43:23;12.52;;;1.75;;
74593;SDS011;63097;51.872;4.460;2023-04-24T07:45:48;5.75;;;1.17;;
74593;SDS011;63097;51.872;4.460;2023-04-24T07:48:14;18.02;;;2.10;;
74593;SDS011;63097;51.872;4.460;2023-04-24T07:50:39;17.80;;;1.73;;
74593;SDS011;63097;51.872;4.460;2023-04-24T07:53:04;8.68;;;1.67;;
74593;SDS011;63097;51.872;4.460;2023-04-24T07:55:30;11.95;;;1.63;;
74593;SDS011;63097;51.872;4.460;2023-04-24T07:57:55;11.85;;;1.40;;
74593;SDS011;63097;51.872;4.460;2023-04-24T08:00:20;9.07;;;1.10;;
74593;SDS011;63097;51.872;4.460;2023-04-24T08:02:45;12.98;;;1.83;;
74593;SDS011;63097;51.872;4.460;2023-04-24T08:05:11;18.25;;;2.35;;
74593;SDS011;63097;51.872;4.460;2023-04-24T08:07:36;13.20;;;2.15;;
74593;SDS011;63097;51.872;4.460;2023-04-24T08:10:02;17.52;;;2.25;;
74593;SDS011;63097;51.872;4.460;2023-04-24T08:12:28;15.13;;;1.80;;
74593;SDS011;63097;51.872;4.460;2023-04-24T08:14:54;7.15;;;1.67;;
74593;SDS011;63097;51.872;4.460;2023-04-24T08:17:19;12.13;;;1.95;;
74593;SDS011;63097;51.872;4.460;2023-04-24T08:19:45;10.35;;;1.20;;
74593;SDS011;63097;51.872;4.460;2023-04-24T08:22:10;11.68;;;1.60;;
74593;SDS011;63097;51.872;4.460;2023-04-24T08:24:35;13.85;;;1.40;;
74593;SDS011;63097;51.872;4.460;2023-04-24T08:27:01;4.22;;;0.90;;
74593;SDS011;63097;51.872;4.460;2023-04-24T08:29:26;10.98;;;1.45;;
74593;SDS011;63097;51.872;4.460;2023-04-24T08:31:51;15.75;;;1.48;;
74593;SDS011;63097;51.872;4.460;2023-04-24T08:34:17;12.32;;;1.23;;
74593;SDS011;63097;51.872;4.460;2023-04-24T08:36:42;13.77;;;1.45;;
74593;SDS011;63097;51.872;4.460;2023-04-24T08:39:07;4.60;;;1.20;;
74593;SDS011;63097;51.872;4.460;2023-04-24T08:41:33;10.57;;;0.93;;
74593;SDS011;63097;51.872;4.460;2023-04-24T08:43:59;7.78;;;1.55;;
74593;SDS011;63097;51.872;4.460;2023-04-24T08:46:26;8.90;;;1.00;;
74593;SDS011;63097;51.872;4.460;2023-04-24T08:48:52;8.65;;;1.00;;
74593;SDS011;63097;51.872;4.460;2023-04-24T08:51:17;5.75;;;0.77;;
74593;SDS011;63097;51.872;4.460;2023-04-24T08:53:45;5.75;;;0.75;;
74593;SDS011;63097;51.872;4.460;2023-04-24T08:56:11;5.30;;;0.70;;
74593;SDS011;63097;51.872;4.460;2023-04-24T08:58:36;8.00;;;1.23;;
74593;SDS011;63097;51.872;4.460;2023-04-24T09:01:02;9.48;;;1.15;;
74593;SDS011;63097;51.872;4.460;2023-04-24T09:03:28;7.88;;;1.42;;
74593;SDS011;63097;51.872;4.460;2023-04-24T09:05:54;6.40;;;1.15;;
74593;SDS011;63097;51.872;4.460;2023-04-24T09:08:20;4.32;;;0.70;;
74593;SDS011;63097;51.872;4.460;2023-04-24T09:10:48;4.78;;;0.90;;
74593;SDS011;63097;51.872;4.460;2023-04-24T09:13:14;1.45;;;0.65;;
74593;SDS011;63097;51.872;4.460;2023-04-24T09:15:39;3.35;;;0.77;;
74593;SDS011;63097;51.872;4.460;2023-04-24T09:18:05;2.30;;;0.30;;
74593;SDS011;63097;51.872;4.460;2023-04-24T09:20:31;6.40;;;0.50;;
74593;SDS011;63097;51.872;4.460;2023-04-24T09:22:57;5.47;;;0.50;;
74593;SDS011;63097;51.872;4.460;2023-04-24T09:25:24;4.18;;;0.63;;
74593;SDS011;63097;51.872;4.460;2023-04-24T09:27:58;0.63;;;0.30;;
74593;SDS011;63097;51.872;4.460;2023-04-24T09:30:26;2.65;;;0.35;;
74593;SDS011;63097;51.872;4.460;2023-04-24T09:33:09;6.82;;;0.43;;
74593;SDS011;63097;51.872;4.460;2023-04-24T09:35:40;1.98;;;0.50;;
74593;SDS011;63097;51.872;4.460;2023-04-24T09:38:06;9.95;;;0.98;;
74593;SDS011;63097;51.872;4.460;2023-04-24T09:40:31;2.72;;;0.30;;
74593;SDS011;63097;51.872;4.460;2023-04-24T09:42:59;3.63;;;0.63;;
74593;SDS011;63097;51.872;4.460;2023-04-24T09:45:28;2.85;;;0.20;;
74593;SDS011;63097;51.872;4.460;2023-04-24T09:47:59;0.52;;;0.20;;
74593;SDS011;63097;51.872;4.460;2023-04-24T09:50:25;1.42;;;0.20;;
74593;SDS011;63097;51.872;4.460;2023-04-24T09:52:57;5.00;;;0.73;;
74593;SDS011;63097;51.872;4.460;2023-04-24T09:55:24;0.43;;;0.10;;
74593;SDS011;63097;51.872;4.460;2023-04-24T09:57:50;2.22;;;0.45;;
74593;SDS011;63097;51.872;4.460;2023-04-24T10:00:17;4.57;;;0.20;;
74593;SDS011;63097;51.872;4.460;2023-04-24T10:02:50;3.85;;;0.40;;
74593;SDS011;63097;51.872;4.460;2023-04-24T10:05:22;4.45;;;0.65;;
74593;SDS011;63097;51.872;4.460;2023-04-24T10:07:48;3.33;;;0.75;;
74593;SDS011;63097;51.872;4.460;2023-04-24T10:10:13;2.28;;;0.50;;
74593;SDS011;63097;51.872;4.460;2023-04-24T10:12:39;6.20;;;0.60;;
74593;SDS011;63097;51.872;4.460;2023-04-24T10:15:05;8.02;;;0.70;;
74593;SDS011;63097;51.872;4.460;2023-04-24T10:17:31;7.80;;;0.63;;
74593;SDS011;63097;51.872;4.460;2023-04-24T10:19:57;5.85;;;0.75;;
74593;SDS011;63097;51.872;4.460;2023-04-24T10:22:25;3.28;;;0.80;;
74593;SDS011;63097;51.872;4.460;2023-04-24T10:24:51;8.32;;;0.77;;
74593;SDS011;63097;51.872;4.460;2023-04-24T10:27:17;5.10;;;0.80;;
74593;SDS011;63097;51.872;4.460;2023-04-24T10:29:45;3.88;;;0.47;;
74593;SDS011;63097;51.872;4.460;2023-04-24T10:32:12;6.35;;;0.82;;
74593;SDS011;63097;51.872;4.460;2023-04-24T10:34:37;7.63;;;0.55;;
74593;SDS011;63097;51.872;4.460;2023-04-24T10:37:02;7.97;;;0.82;;
74593;SDS011;63097;51.872;4.460;2023-04-24T10:39:28;7.95;;;0.80;;
74593;SDS011;63097;51.872;4.460;2023-04-24T10:41:54;9.40;;;1.17;;
74593;SDS011;63097;51.872;4.460;2023-04-24T10:44:20;3.33;;;0.60;;
74593;SDS011;63097;51.872;4.460;2023-04-24T10:46:49;7.43;;;0.70;;
74593;SDS011;63097;51.872;4.460;2023-04-24T10:49:19;6.93;;;0.82;;
74593;SDS011;63097;51.872;4.460;2023-04-24T10:51:59;3.42;;;0.77;;
74593;SDS011;63097;51.872;4.460;2023-04-24T10:54:33;12.50;;;0.80;;
74593;SDS011;63097;51.872;4.460;2023-04-24T10:59:43;1.80;;;0.30;;
74593;SDS011;63097;51.872;4.460;2023-04-24T11:02:09;6.38;;;0.43;;
74593;SDS011;63097;51.872;4.460;2023-04-24T11:04:34;4.03;;;0.77;;
74593;SDS011;63097;51.872;4.460;2023-04-24T11:06:59;5.35;;;0.52;;
74593;SDS011;63097;51.872;4.460;2023-04-24T11:09:28;6.65;;;0.60;;
74593;SDS011;63097;51.872;4.460;2023-04-24T11:12:14;10.40;;;1.02;;
74593;SDS011;63097;51.872;4.460;2023-04-24T11:17:35;7.53;;;0.80;;
74593;SDS011;63097;51.872;4.460;2023-04-24T11:20:02;2.22;;;0.40;;
74593;SDS011;63097;51.872;4.460;2023-04-24T11:22:29;4.72;;;0.82;;
74593;SDS011;63097;51.872;4.460;2023-04-24T11:24:58;7.68;;;0.70;;
74593;SDS011;63097;51.872;4.460;2023-04-24T11:27:25;12.70;;;1.15;;
74593;SDS011;63097;51.872;4.460;2023-04-24T11:30:03;5.90;;;0.73;;
74593;SDS011;63097;51.872;4.460;2023-04-24T11:32:35;5.75;;;0.60;;
74593;SDS011;63097;51.872;4.460;2023-04-24T11:35:13;6.25;;;0.90;;
74593;SDS011;63097;51.872;4.460;2023-04-24T11:37:41;7.55;;;0.40;;
74593;SDS011;63097;51.872;4.460;2023-04-24T11:40:11;3.42;;;0.70;;
74593;SDS011;63097;51.872;4.460;2023-04-24T11:42:44;7.13;;;0.68;;
74593;SDS011;63097;51.872;4.460;2023-04-24T11:45:12;3.33;;;0.55;;
74593;SDS011;63097;51.872;4.460;2023-04-24T11:47:43;4.30;;;1.08;;
74593;SDS011;63097;51.872;4.460;2023-04-24T11:50:10;6.70;;;1.33;;
74593;SDS011;63097;51.872;4.460;2023-04-24T11:52:38;12.25;;;1.33;;
74593;SDS011;63097;51.872;4.460;2023-04-24T11:55:06;5.65;;;1.15;;
74593;SDS011;63097;51.872;4.460;2023-04-24T11:57:53;9.50;;;1.15;;
74593;SDS011;63097;51.872;4.460;2023-04-24T12:00:21;5.32;;;1.33;;
74593;SDS011;63097;51.872;4.460;2023-04-24T12:02:48;6.80;;;0.90;;
74593;SDS011;63097;51.872;4.460;2023-04-24T12:07:46;7.68;;;1.13;;
74593;SDS011;63097;51.872;4.460;2023-04-24T12:10:11;10.45;;;1.05;;
74593;SDS011;63097;51.872;4.460;2023-04-24T12:12:37;4.80;;;1.10;;
74593;SDS011;63097;51.872;4.460;2023-04-24T12:15:06;6.32;;;1.20;;
74593;SDS011;63097;51.872;4.460;2023-04-24T12:17:33;3.53;;;0.80;;
74593;SDS011;63097;51.872;4.460;2023-04-24T12:19:59;7.07;;;1.25;;
74593;SDS011;63097;51.872;4.460;2023-04-24T12:22:26;12.90;;;1.55;;
74593;SDS011;63097;51.872;4.460;2023-04-24T12:24:55;7.47;;;1.65;;
74593;SDS011;63097;51.872;4.460;2023-04-24T12:27:30;7.90;;;0.80;;
74593;SDS011;63097;51.872;4.460;2023-04-24T12:29:59;9.35;;;1.08;;
74593;SDS011;63097;51.872;4.460;2023-04-24T12:32:26;9.98;;;1.27;;
74593;SDS011;63097;51.872;4.460;2023-04-24T12:34:52;5.68;;;0.80;;
74593;SDS011;63097;51.872;4.460;2023-04-24T12:37:18;7.70;;;1.38;;
74593;SDS011;63097;51.872;4.460;2023-04-24T12:39:44;7.50;;;1.10;;
74593;SDS011;63097;51.872;4.460;2023-04-24T12:42:29;6.55;;;1.10;;
74593;SDS011;63097;51.872;4.460;2023-04-24T12:45:05;6.00;;;1.33;;
74593;SDS011;63097;51.872;4.460;2023-04-24T12:47:32;5.63;;;1.08;;
74593;SDS011;63097;51.872;4.460;2023-04-24T12:49:58;8.45;;;1.48;;
74593;SDS011;63097;51.872;4.460;2023-04-24T12:52:25;7.63;;;0.95;;
74593;SDS011;63097;51.872;4.460;2023-04-24T12:54:55;2.92;;;0.90;;
74593;SDS011;63097;51.872;4.460;2023-04-24T12:57:22;10.10;;;1.38;;
74593;SDS011;63097;51.872;4.460;2023-04-24T12:59:48;12.00;;;1.27;;
74593;SDS011;63097;51.872;4.460;2023-04-24T13:02:14;9.52;;;1.20;;
74593;SDS011;63097;51.872;4.460;2023-04-24T13:04:39;9.52;;;1.10;;
74593;SDS011;63097;51.872;4.460;2023-04-24T13:07:05;10.90;;;1.40;;
74593;SDS011;63097;51.872;4.460;2023-04-24T13:09:30;9.60;;;1.30;;
74593;SDS011;63097;51.872;4.460;2023-04-24T13:11:56;9.05;;;1.50;;
74593;SDS011;63097;51.872;4.460;2023-04-24T13:14:21;6.85;;;1.52;;
74593;SDS011;63097;51.872;4.460;2023-04-24T13:16:47;12.70;;;2.13;;
74593;SDS011;63097;51.872;4.460;2023-04-24T13:19:12;16.05;;;1.55;;
74593;SDS011;63097;51.872;4.460;2023-04-24T13:21:38;8.50;;;1.30;;
74593;SDS011;63097;51.872;4.460;2023-04-24T13:24:03;12.38;;;1.13;;
74593;SDS011;63097;51.872;4.460;2023-04-24T13:26:28;11.70;;;1.67;;
74593;SDS011;63097;51.872;4.460;2023-04-24T13:28:54;9.50;;;1.55;;
74593;SDS011;63097;51.872;4.460;2023-04-24T13:31:19;7.38;;;1.92;;
74593;SDS011;63097;51.872;4.460;2023-04-24T13:33:44;10.15;;;1.80;;
74593;SDS011;63097;51.872;4.460;2023-04-24T13:36:09;10.50;;;1.63;;
74593;SDS011;63097;51.872;4.460;2023-04-24T13:38:35;6.97;;;1.10;;
74593;SDS011;63097;51.872;4.460;2023-04-24T13:41:00;11.38;;;2.00;;
74593;SDS011;63097;51.872;4.460;2023-04-24T13:43:25;9.73;;;2.15;;
74593;SDS011;63097;51.872;4.460;2023-04-24T13:45:51;9.85;;;1.50;;
74593;SDS011;63097;51.872;4.460;2023-04-24T13:48:16;10.88;;;2.35;;
74593;SDS011;63097;51.872;4.460;2023-04-24T13:50:42;11.48;;;2.22;;
74593;SDS011;63097;51.872;4.460;2023-04-24T13:53:07;20.40;;;2.97;;
74593;SDS011;63097;51.872;4.460;2023-04-24T13:55:32;11.90;;;2.42;;
74593;SDS011;63097;51.872;4.460;2023-04-24T13:57:58;13.73;;;2.53;;
74593;SDS011;63097;51.872;4.460;2023-04-24T14:00:23;6.55;;;1.60;;
74593;SDS011;63097;51.872;4.460;2023-04-24T14:02:49;8.98;;;1.88;;
74593;SDS011;63097;51.872;4.460;2023-04-24T14:05:14;9.18;;;1.90;;
74593;SDS011;63097;51.872;4.460;2023-04-24T14:07:39;8.00;;;0.93;;
74593;SDS011;63097;51.872;4.460;2023-04-24T14:10:05;6.22;;;0.93;;
74593;SDS011;63097;51.872;4.460;2023-04-24T14:12:30;4.60;;;1.33;;
74593;SDS011;63097;51.872;4.460;2023-04-24T14:14:56;8.45;;;1.48;;
74593;SDS011;63097;51.872;4.460;2023-04-24T14:17:21;7.40;;;2.28;;
74593;SDS011;63097;51.872;4.460;2023-04-24T14:19:46;14.40;;;1.85;;
74593;SDS011;63097;51.872;4.460;2023-04-24T14:22:12;16.88;;;2.60;;
74593;SDS011;63097;51.872;4.460;2023-04-24T14:24:37;14.35;;;2.72;;
74593;SDS011;63097;51.872;4.460;2023-04-24T14:27:02;12.85;;;1.95;;
74593;SDS011;63097;51.872;4.460;2023-04-24T14:29:28;12.23;;;2.60;;
74593;SDS011;63097;51.872;4.460;2023-04-24T14:31:53;11.05;;;2.15;;
74593;SDS011;63097;51.872;4.460;2023-04-24T14:34:18;10.15;;;2.20;;
74593;SDS011;63097;51.872;4.460;2023-04-24T14:36:44;15.55;;;3.03;;
74593;SDS011;63097;51.872;4.460;2023-04-24T14:39:09;11.90;;;2.50;;
74593;SDS011;63097;51.872;4.460;2023-04-24T14:41:34;13.35;;;2.03;;
74593;SDS011;63097;51.872;4.460;2023-04-24T14:44:01;21.45;;;2.80;;